sensor_id;sensor_type;location;lat;lon;timestamp;P1;durP1;ratioP1;P2;durP2;ratioP2
35891;SDS011;21993;42.672;23.296;2023-04-16T00:01:55;14.03;;;8.33;;
35891;SDS011;21993;42.672;23.296;2023-04-16T00:04:21;6.40;;;5.10;;
35891;SDS011;21993;42.672;23.296;2023-04-16T00:06:46;6.77;;;4.47;;
35891;SDS011;21993;42.672;23.296;2023-04-16T00:09:11;7.20;;;3.47;;
35891;SDS011;21993;42.672;23.296;2023-04-16T00:11:38;4.00;;;2.70;;
35891;SDS011;21993;42.672;23.296;2023-04-16T00:14:03;3.67;;;2.77;;
35891;SDS011;21993;42.672;23.296;2023-04-16T00:16:29;5.20;;;2.80;;
35891;SDS011;21993;42.672;23.296;2023-04-16T00:18:54;6.80;;;2.90;;
35891;SDS011;21993;42.672;23.296;2023-04-16T00:21:20;5.87;;;3.40;;
35891;SDS011;21993;42.672;23.296;2023-04-16T00:23:45;6.50;;;3.40;;
35891;SDS011;21993;42.672;23.296;2023-04-16T00:26:10;4.17;;;3.13;;
35891;SDS011;21993;42.672;23.296;2023-04-16T00:28:36;6.10;;;4.20;;
35891;SDS011;21993;42.672;23.296;2023-04-16T00:31:01;6.90;;;3.57;;
35891;SDS011;21993;42.672;23.296;2023-04-16T00:33:27;4.97;;;3.50;;
35891;SDS011;21993;42.672;23.296;2023-04-16T00:35:54;4.77;;;3.57;;
35891;SDS011;21993;42.672;23.296;2023-04-16T00:38:19;5.03;;;2.90;;
35891;SDS011;21993;42.672;23.296;2023-04-16T00:40:45;9.83;;;3.13;;
35891;SDS011;21993;42.672;23.296;2023-04-16T00:43:10;6.17;;;3.77;;
35891;SDS011;21993;42.672;23.296;2023-04-16T00:45:36;4.17;;;3.67;;
35891;SDS011;21993;42.672;23.296;2023-04-16T00:48:01;7.17;;;4.07;;
35891;SDS011;21993;42.672;23.296;2023-04-16T00:50:27;6.60;;;4.00;;
35891;SDS011;21993;42.672;23.296;2023-04-16T00:52:53;8.80;;;4.30;;
35891;SDS011;21993;42.672;23.296;2023-04-16T00:55:20;8.33;;;4.13;;
35891;SDS011;21993;42.672;23.296;2023-04-16T00:57:46;8.87;;;4.70;;
35891;SDS011;21993;42.672;23.296;2023-04-16T01:00:11;8.60;;;4.60;;
35891;SDS011;21993;42.672;23.296;2023-04-16T01:02:37;6.00;;;4.27;;
35891;SDS011;21993;42.672;23.296;2023-04-16T01:05:03;7.30;;;4.00;;
35891;SDS011;21993;42.672;23.296;2023-04-16T01:07:29;9.10;;;4.03;;
35891;SDS011;21993;42.672;23.296;2023-04-16T01:09:55;7.77;;;4.17;;
35891;SDS011;21993;42.672;23.296;2023-04-16T01:12:21;7.40;;;4.23;;
35891;SDS011;21993;42.672;23.296;2023-04-16T01:14:47;7.03;;;4.27;;
35891;SDS011;21993;42.672;23.296;2023-04-16T01:17:12;7.87;;;4.33;;
35891;SDS011;21993;42.672;23.296;2023-04-16T01:19:37;7.47;;;4.00;;
35891;SDS011;21993;42.672;23.296;2023-04-16T01:22:03;6.20;;;3.80;;
35891;SDS011;21993;42.672;23.296;2023-04-16T01:24:29;7.47;;;4.20;;
35891;SDS011;21993;42.672;23.296;2023-04-16T01:26:56;6.83;;;4.50;;
35891;SDS011;21993;42.672;23.296;2023-04-16T01:29:22;9.57;;;4.23;;
35891;SDS011;21993;42.672;23.296;2023-04-16T01:31:48;6.93;;;4.10;;
35891;SDS011;21993;42.672;23.296;2023-04-16T01:34:13;6.90;;;4.30;;
35891;SDS011;21993;42.672;23.296;2023-04-16T01:36:38;12.67;;;5.00;;
35891;SDS011;21993;42.672;23.296;2023-04-16T01:39:04;10.13;;;4.53;;
35891;SDS011;21993;42.672;23.296;2023-04-16T01:41:30;8.87;;;4.20;;
35891;SDS011;21993;42.672;23.296;2023-04-16T01:43:55;8.30;;;4.60;;
35891;SDS011;21993;42.672;23.296;2023-04-16T01:46:27;7.97;;;4.53;;
35891;SDS011;21993;42.672;23.296;2023-04-16T01:48:56;8.13;;;3.93;;
35891;SDS011;21993;42.672;23.296;2023-04-16T01:51:22;11.07;;;4.57;;
35891;SDS011;21993;42.672;23.296;2023-04-16T01:53:48;5.70;;;4.00;;
35891;SDS011;21993;42.672;23.296;2023-04-16T01:56:14;6.90;;;4.40;;
35891;SDS011;21993;42.672;23.296;2023-04-16T01:58:40;7.30;;;4.50;;
35891;SDS011;21993;42.672;23.296;2023-04-16T02:01:07;4.27;;;3.40;;
35891;SDS011;21993;42.672;23.296;2023-04-16T02:03:33;8.37;;;4.40;;
35891;SDS011;21993;42.672;23.296;2023-04-16T02:05:58;7.53;;;4.47;;
35891;SDS011;21993;42.672;23.296;2023-04-16T02:08:25;5.97;;;3.87;;
35891;SDS011;21993;42.672;23.296;2023-04-16T02:10:50;8.30;;;4.83;;
35891;SDS011;21993;42.672;23.296;2023-04-16T02:13:16;6.20;;;4.00;;
35891;SDS011;21993;42.672;23.296;2023-04-16T02:15:49;7.03;;;3.67;;
35891;SDS011;21993;42.672;23.296;2023-04-16T02:18:14;7.50;;;4.50;;
35891;SDS011;21993;42.672;23.296;2023-04-16T02:20:41;6.37;;;4.17;;
35891;SDS011;21993;42.672;23.296;2023-04-16T02:23:07;10.33;;;4.33;;
35891;SDS011;21993;42.672;23.296;2023-04-16T02:25:36;4.60;;;3.67;;
35891;SDS011;21993;42.672;23.296;2023-04-16T02:28:04;7.90;;;4.17;;
35891;SDS011;21993;42.672;23.296;2023-04-16T02:30:30;4.40;;;3.30;;
35891;SDS011;21993;42.672;23.296;2023-04-16T02:32:55;6.17;;;3.90;;
35891;SDS011;21993;42.672;23.296;2023-04-16T02:35:21;6.40;;;3.37;;
35891;SDS011;21993;42.672;23.296;2023-04-16T02:37:46;6.53;;;3.30;;
35891;SDS011;21993;42.672;23.296;2023-04-16T02:40:12;6.70;;;3.33;;
35891;SDS011;21993;42.672;23.296;2023-04-16T02:42:37;4.27;;;3.40;;
35891;SDS011;21993;42.672;23.296;2023-04-16T02:45:03;7.23;;;3.60;;
35891;SDS011;21993;42.672;23.296;2023-04-16T02:47:29;5.20;;;4.27;;
35891;SDS011;21993;42.672;23.296;2023-04-16T02:49:54;5.90;;;3.40;;
35891;SDS011;21993;42.672;23.296;2023-04-16T02:52:20;6.53;;;3.50;;
35891;SDS011;21993;42.672;23.296;2023-04-16T02:54:45;9.37;;;4.50;;
35891;SDS011;21993;42.672;23.296;2023-04-16T02:57:10;5.23;;;3.40;;
35891;SDS011;21993;42.672;23.296;2023-04-16T02:59:36;6.53;;;3.87;;
35891;SDS011;21993;42.672;23.296;2023-04-16T03:02:01;4.83;;;4.00;;
35891;SDS011;21993;42.672;23.296;2023-04-16T03:04:26;8.63;;;4.00;;
35891;SDS011;21993;42.672;23.296;2023-04-16T03:06:52;5.57;;;3.57;;
35891;SDS011;21993;42.672;23.296;2023-04-16T03:09:17;6.30;;;3.50;;
35891;SDS011;21993;42.672;23.296;2023-04-16T03:11:43;5.70;;;3.27;;
35891;SDS011;21993;42.672;23.296;2023-04-16T03:14:08;3.23;;;2.93;;
35891;SDS011;21993;42.672;23.296;2023-04-16T03:16:33;3.73;;;3.13;;
35891;SDS011;21993;42.672;23.296;2023-04-16T03:18:59;5.33;;;3.37;;
35891;SDS011;21993;42.672;23.296;2023-04-16T03:21:24;5.47;;;2.93;;
35891;SDS011;21993;42.672;23.296;2023-04-16T03:23:51;4.33;;;2.70;;
35891;SDS011;21993;42.672;23.296;2023-04-16T03:26:17;6.20;;;3.17;;
35891;SDS011;21993;42.672;23.296;2023-04-16T03:28:43;7.23;;;2.90;;
35891;SDS011;21993;42.672;23.296;2023-04-16T03:31:08;4.90;;;3.63;;
35891;SDS011;21993;42.672;23.296;2023-04-16T03:33:34;6.17;;;3.20;;
35891;SDS011;21993;42.672;23.296;2023-04-16T03:35:59;4.23;;;3.30;;
35891;SDS011;21993;42.672;23.296;2023-04-16T03:38:25;5.23;;;3.57;;
35891;SDS011;21993;42.672;23.296;2023-04-16T03:40:50;5.60;;;3.50;;
35891;SDS011;21993;42.672;23.296;2023-04-16T03:43:16;6.63;;;3.70;;
35891;SDS011;21993;42.672;23.296;2023-04-16T03:45:44;6.27;;;3.37;;
35891;SDS011;21993;42.672;23.296;2023-04-16T03:48:10;8.63;;;3.67;;
35891;SDS011;21993;42.672;23.296;2023-04-16T03:50:36;4.53;;;3.37;;
35891;SDS011;21993;42.672;23.296;2023-04-16T03:53:01;5.70;;;3.50;;
35891;SDS011;21993;42.672;23.296;2023-04-16T03:55:27;6.40;;;3.70;;
35891;SDS011;21993;42.672;23.296;2023-04-16T03:57:52;4.53;;;3.70;;
35891;SDS011;21993;42.672;23.296;2023-04-16T04:00:18;4.57;;;3.20;;
35891;SDS011;21993;42.672;23.296;2023-04-16T04:02:43;6.10;;;3.37;;
35891;SDS011;21993;42.672;23.296;2023-04-16T04:05:09;5.20;;;3.43;;
35891;SDS011;21993;42.672;23.296;2023-04-16T04:07:35;7.20;;;3.30;;
35891;SDS011;21993;42.672;23.296;2023-04-16T04:10:00;8.97;;;4.10;;
35891;SDS011;21993;42.672;23.296;2023-04-16T04:12:25;4.27;;;3.77;;
35891;SDS011;21993;42.672;23.296;2023-04-16T04:14:51;7.10;;;3.97;;
35891;SDS011;21993;42.672;23.296;2023-04-16T04:17:16;9.87;;;3.90;;
35891;SDS011;21993;42.672;23.296;2023-04-16T04:19:42;6.07;;;4.20;;
35891;SDS011;21993;42.672;23.296;2023-04-16T04:22:07;8.20;;;3.60;;
35891;SDS011;21993;42.672;23.296;2023-04-16T04:24:33;7.67;;;4.53;;
35891;SDS011;21993;42.672;23.296;2023-04-16T04:26:58;6.20;;;3.80;;
35891;SDS011;21993;42.672;23.296;2023-04-16T04:29:24;6.73;;;4.30;;
35891;SDS011;21993;42.672;23.296;2023-04-16T04:31:49;7.70;;;4.53;;
35891;SDS011;21993;42.672;23.296;2023-04-16T04:34:15;10.40;;;4.77;;
35891;SDS011;21993;42.672;23.296;2023-04-16T04:36:40;9.40;;;4.80;;
35891;SDS011;21993;42.672;23.296;2023-04-16T04:39:06;7.37;;;5.10;;
35891;SDS011;21993;42.672;23.296;2023-04-16T04:41:31;6.80;;;4.90;;
35891;SDS011;21993;42.672;23.296;2023-04-16T04:43:56;9.97;;;4.93;;
35891;SDS011;21993;42.672;23.296;2023-04-16T04:46:22;7.70;;;4.30;;
35891;SDS011;21993;42.672;23.296;2023-04-16T04:48:47;8.53;;;4.80;;
35891;SDS011;21993;42.672;23.296;2023-04-16T04:51:13;8.73;;;5.17;;
35891;SDS011;21993;42.672;23.296;2023-04-16T04:53:38;12.60;;;5.17;;
35891;SDS011;21993;42.672;23.296;2023-04-16T04:56:03;10.20;;;5.40;;
35891;SDS011;21993;42.672;23.296;2023-04-16T04:58:29;8.63;;;4.93;;
35891;SDS011;21993;42.672;23.296;2023-04-16T05:00:54;8.43;;;4.87;;
35891;SDS011;21993;42.672;23.296;2023-04-16T05:03:20;8.33;;;4.63;;
35891;SDS011;21993;42.672;23.296;2023-04-16T05:05:46;8.87;;;4.87;;
35891;SDS011;21993;42.672;23.296;2023-04-16T05:08:11;7.30;;;4.87;;
35891;SDS011;21993;42.672;23.296;2023-04-16T05:10:37;6.90;;;5.10;;
35891;SDS011;21993;42.672;23.296;2023-04-16T05:13:03;7.03;;;5.20;;
35891;SDS011;21993;42.672;23.296;2023-04-16T05:15:28;12.00;;;5.20;;
35891;SDS011;21993;42.672;23.296;2023-04-16T05:17:53;7.80;;;4.67;;
35891;SDS011;21993;42.672;23.296;2023-04-16T05:20:22;9.13;;;5.33;;
35891;SDS011;21993;42.672;23.296;2023-04-16T05:22:50;8.77;;;4.53;;
35891;SDS011;21993;42.672;23.296;2023-04-16T05:25:16;8.77;;;4.90;;
35891;SDS011;21993;42.672;23.296;2023-04-16T05:27:41;8.97;;;5.30;;
35891;SDS011;21993;42.672;23.296;2023-04-16T05:30:07;8.33;;;5.40;;
35891;SDS011;21993;42.672;23.296;2023-04-16T05:32:33;10.07;;;5.10;;
35891;SDS011;21993;42.672;23.296;2023-04-16T05:34:59;10.10;;;5.10;;
35891;SDS011;21993;42.672;23.296;2023-04-16T05:37:25;14.63;;;4.73;;
35891;SDS011;21993;42.672;23.296;2023-04-16T05:39:50;6.83;;;4.70;;
35891;SDS011;21993;42.672;23.296;2023-04-16T05:42:15;8.57;;;5.00;;
35891;SDS011;21993;42.672;23.296;2023-04-16T05:44:41;8.63;;;5.00;;
35891;SDS011;21993;42.672;23.296;2023-04-16T05:47:06;8.77;;;5.47;;
35891;SDS011;21993;42.672;23.296;2023-04-16T05:49:33;6.53;;;4.27;;
35891;SDS011;21993;42.672;23.296;2023-04-16T05:52:00;10.30;;;4.90;;
35891;SDS011;21993;42.672;23.296;2023-04-16T05:54:26;8.33;;;5.27;;
35891;SDS011;21993;42.672;23.296;2023-04-16T05:56:51;6.93;;;4.70;;
35891;SDS011;21993;42.672;23.296;2023-04-16T05:59:16;10.07;;;5.00;;
35891;SDS011;21993;42.672;23.296;2023-04-16T06:01:42;8.33;;;5.37;;
35891;SDS011;21993;42.672;23.296;2023-04-16T06:04:07;11.20;;;5.80;;
35891;SDS011;21993;42.672;23.296;2023-04-16T06:06:32;11.10;;;5.57;;
35891;SDS011;21993;42.672;23.296;2023-04-16T06:08:58;7.17;;;5.53;;
35891;SDS011;21993;42.672;23.296;2023-04-16T06:11:23;10.53;;;6.43;;
35891;SDS011;21993;42.672;23.296;2023-04-16T06:13:49;7.47;;;5.77;;
35891;SDS011;21993;42.672;23.296;2023-04-16T06:16:14;10.30;;;6.10;;
35891;SDS011;21993;42.672;23.296;2023-04-16T06:18:40;9.27;;;6.13;;
35891;SDS011;21993;42.672;23.296;2023-04-16T06:21:06;8.60;;;5.80;;
35891;SDS011;21993;42.672;23.296;2023-04-16T06:23:31;13.53;;;5.90;;
35891;SDS011;21993;42.672;23.296;2023-04-16T06:25:57;11.23;;;6.07;;
35891;SDS011;21993;42.672;23.296;2023-04-16T06:28:22;7.80;;;5.37;;
35891;SDS011;21993;42.672;23.296;2023-04-16T06:30:48;10.30;;;5.80;;
35891;SDS011;21993;42.672;23.296;2023-04-16T06:33:13;11.13;;;5.97;;
35891;SDS011;21993;42.672;23.296;2023-04-16T06:35:38;10.50;;;5.90;;
35891;SDS011;21993;42.672;23.296;2023-04-16T06:38:04;12.47;;;6.03;;
35891;SDS011;21993;42.672;23.296;2023-04-16T06:40:30;8.63;;;5.50;;
35891;SDS011;21993;42.672;23.296;2023-04-16T06:42:55;8.33;;;5.63;;
35891;SDS011;21993;42.672;23.296;2023-04-16T06:45:21;11.33;;;5.43;;
35891;SDS011;21993;42.672;23.296;2023-04-16T06:47:46;9.87;;;6.13;;
35891;SDS011;21993;42.672;23.296;2023-04-16T06:50:12;10.50;;;5.60;;
35891;SDS011;21993;42.672;23.296;2023-04-16T06:52:37;14.17;;;6.10;;
35891;SDS011;21993;42.672;23.296;2023-04-16T06:55:03;10.57;;;5.63;;
35891;SDS011;21993;42.672;23.296;2023-04-16T06:57:29;9.57;;;6.07;;
35891;SDS011;21993;42.672;23.296;2023-04-16T06:59:54;9.07;;;5.47;;
35891;SDS011;21993;42.672;23.296;2023-04-16T07:02:19;8.57;;;5.20;;
35891;SDS011;21993;42.672;23.296;2023-04-16T07:04:45;11.10;;;5.33;;
35891;SDS011;21993;42.672;23.296;2023-04-16T07:07:10;13.37;;;6.13;;
35891;SDS011;21993;42.672;23.296;2023-04-16T07:09:36;14.00;;;5.87;;
35891;SDS011;21993;42.672;23.296;2023-04-16T07:12:01;10.70;;;5.73;;
35891;SDS011;21993;42.672;23.296;2023-04-16T07:14:26;6.37;;;4.90;;
35891;SDS011;21993;42.672;23.296;2023-04-16T07:16:52;6.83;;;4.80;;
35891;SDS011;21993;42.672;23.296;2023-04-16T07:19:17;13.30;;;5.40;;
35891;SDS011;21993;42.672;23.296;2023-04-16T07:21:43;5.30;;;4.30;;
35891;SDS011;21993;42.672;23.296;2023-04-16T07:24:09;7.63;;;5.70;;
35891;SDS011;21993;42.672;23.296;2023-04-16T07:26:35;9.83;;;5.60;;
35891;SDS011;21993;42.672;23.296;2023-04-16T07:29:01;10.73;;;5.20;;
35891;SDS011;21993;42.672;23.296;2023-04-16T07:31:26;7.23;;;4.73;;
35891;SDS011;21993;42.672;23.296;2023-04-16T07:33:52;6.00;;;5.00;;
35891;SDS011;21993;42.672;23.296;2023-04-16T07:36:17;7.60;;;5.13;;
35891;SDS011;21993;42.672;23.296;2023-04-16T07:38:43;8.87;;;5.67;;
35891;SDS011;21993;42.672;23.296;2023-04-16T07:41:08;10.60;;;4.50;;
35891;SDS011;21993;42.672;23.296;2023-04-16T07:43:34;5.27;;;3.57;;
35891;SDS011;21993;42.672;23.296;2023-04-16T07:45:59;8.10;;;5.17;;
35891;SDS011;21993;42.672;23.296;2023-04-16T07:48:25;7.57;;;4.73;;
35891;SDS011;21993;42.672;23.296;2023-04-16T07:50:51;6.57;;;4.90;;
35891;SDS011;21993;42.672;23.296;2023-04-16T07:53:16;8.27;;;5.20;;
35891;SDS011;21993;42.672;23.296;2023-04-16T07:55:41;8.33;;;5.00;;
35891;SDS011;21993;42.672;23.296;2023-04-16T07:58:07;8.53;;;4.80;;
35891;SDS011;21993;42.672;23.296;2023-04-16T08:00:33;8.60;;;4.80;;
35891;SDS011;21993;42.672;23.296;2023-04-16T08:02:59;6.23;;;4.40;;
35891;SDS011;21993;42.672;23.296;2023-04-16T08:05:25;8.90;;;4.70;;
35891;SDS011;21993;42.672;23.296;2023-04-16T08:07:50;8.33;;;4.77;;
35891;SDS011;21993;42.672;23.296;2023-04-16T08:10:15;5.87;;;4.73;;
35891;SDS011;21993;42.672;23.296;2023-04-16T08:12:41;8.17;;;4.13;;
35891;SDS011;21993;42.672;23.296;2023-04-16T08:15:06;9.97;;;5.80;;
35891;SDS011;21993;42.672;23.296;2023-04-16T08:17:32;11.50;;;4.97;;
35891;SDS011;21993;42.672;23.296;2023-04-16T08:19:58;5.40;;;4.13;;
35891;SDS011;21993;42.672;23.296;2023-04-16T08:22:24;6.60;;;4.60;;
35891;SDS011;21993;42.672;23.296;2023-04-16T08:24:50;7.53;;;4.53;;
35891;SDS011;21993;42.672;23.296;2023-04-16T08:27:16;9.57;;;4.90;;
35891;SDS011;21993;42.672;23.296;2023-04-16T08:29:41;7.47;;;4.27;;
35891;SDS011;21993;42.672;23.296;2023-04-16T08:32:06;7.73;;;4.93;;
35891;SDS011;21993;42.672;23.296;2023-04-16T08:34:34;6.70;;;4.80;;
35891;SDS011;21993;42.672;23.296;2023-04-16T08:37:00;5.70;;;4.23;;
35891;SDS011;21993;42.672;23.296;2023-04-16T08:39:25;8.47;;;4.83;;
35891;SDS011;21993;42.672;23.296;2023-04-16T08:41:51;6.73;;;3.97;;
35891;SDS011;21993;42.672;23.296;2023-04-16T08:44:32;6.73;;;3.97;;
35891;SDS011;21993;42.672;23.296;2023-04-16T08:47:01;5.27;;;4.00;;
35891;SDS011;21993;42.672;23.296;2023-04-16T08:49:27;5.90;;;3.93;;
35891;SDS011;21993;42.672;23.296;2023-04-16T08:51:54;6.47;;;3.33;;
35891;SDS011;21993;42.672;23.296;2023-04-16T08:57:06;7.70;;;3.63;;
35891;SDS011;21993;42.672;23.296;2023-04-16T08:59:34;7.30;;;2.90;;
35891;SDS011;21993;42.672;23.296;2023-04-16T09:02:01;3.33;;;2.50;;
35891;SDS011;21993;42.672;23.296;2023-04-16T09:04:26;8.27;;;3.70;;
35891;SDS011;21993;42.672;23.296;2023-04-16T09:06:53;5.83;;;3.50;;
35891;SDS011;21993;42.672;23.296;2023-04-16T09:09:20;3.90;;;2.73;;
35891;SDS011;21993;42.672;23.296;2023-04-16T09:11:49;5.30;;;3.10;;
35891;SDS011;21993;42.672;23.296;2023-04-16T09:14:18;4.03;;;2.73;;
35891;SDS011;21993;42.672;23.296;2023-04-16T09:16:47;10.50;;;3.40;;
35891;SDS011;21993;42.672;23.296;2023-04-16T09:19:13;8.70;;;3.30;;
35891;SDS011;21993;42.672;23.296;2023-04-16T09:21:40;5.50;;;2.87;;
35891;SDS011;21993;42.672;23.296;2023-04-16T09:24:07;6.13;;;2.70;;
35891;SDS011;21993;42.672;23.296;2023-04-16T09:26:33;3.73;;;2.60;;
35891;SDS011;21993;42.672;23.296;2023-04-16T09:28:59;3.20;;;2.67;;
35891;SDS011;21993;42.672;23.296;2023-04-16T09:31:24;4.63;;;2.73;;
35891;SDS011;21993;42.672;23.296;2023-04-16T09:34:04;10.57;;;3.27;;
35891;SDS011;21993;42.672;23.296;2023-04-16T09:36:31;6.77;;;2.50;;
35891;SDS011;21993;42.672;23.296;2023-04-16T09:38:57;6.95;;;2.70;;
35891;SDS011;21993;42.672;23.296;2023-04-16T09:41:24;5.63;;;3.13;;
35891;SDS011;21993;42.672;23.296;2023-04-16T09:43:57;6.53;;;2.60;;
35891;SDS011;21993;42.672;23.296;2023-04-16T09:46:34;5.17;;;2.90;;
35891;SDS011;21993;42.672;23.296;2023-04-16T09:49:04;3.60;;;2.80;;
35891;SDS011;21993;42.672;23.296;2023-04-16T09:51:42;11.50;;;3.13;;
35891;SDS011;21993;42.672;23.296;2023-04-16T09:54:10;5.10;;;3.00;;
35891;SDS011;21993;42.672;23.296;2023-04-16T09:56:43;5.70;;;2.87;;
35891;SDS011;21993;42.672;23.296;2023-04-16T09:59:22;5.10;;;2.90;;
35891;SDS011;21993;42.672;23.296;2023-04-16T10:01:48;4.27;;;3.20;;
35891;SDS011;21993;42.672;23.296;2023-04-16T10:04:16;5.60;;;3.10;;
35891;SDS011;21993;42.672;23.296;2023-04-16T10:06:42;3.60;;;2.77;;
35891;SDS011;21993;42.672;23.296;2023-04-16T10:09:08;8.77;;;5.70;;
35891;SDS011;21993;42.672;23.296;2023-04-16T10:11:34;9.40;;;4.27;;
35891;SDS011;21993;42.672;23.296;2023-04-16T10:14:01;9.17;;;3.00;;
35891;SDS011;21993;42.672;23.296;2023-04-16T10:16:26;3.73;;;2.60;;
35891;SDS011;21993;42.672;23.296;2023-04-16T10:18:53;5.77;;;3.10;;
35891;SDS011;21993;42.672;23.296;2023-04-16T10:21:19;4.90;;;2.70;;
35891;SDS011;21993;42.672;23.296;2023-04-16T10:23:45;6.57;;;3.17;;
35891;SDS011;21993;42.672;23.296;2023-04-16T10:26:13;8.90;;;3.03;;
35891;SDS011;21993;42.672;23.296;2023-04-16T10:28:42;6.80;;;3.10;;
35891;SDS011;21993;42.672;23.296;2023-04-16T10:31:09;7.80;;;3.20;;
35891;SDS011;21993;42.672;23.296;2023-04-16T10:33:35;6.27;;;2.97;;
35891;SDS011;21993;42.672;23.296;2023-04-16T10:36:13;6.67;;;3.17;;
35891;SDS011;21993;42.672;23.296;2023-04-16T10:38:43;3.90;;;3.20;;
35891;SDS011;21993;42.672;23.296;2023-04-16T10:41:10;4.77;;;3.20;;
35891;SDS011;21993;42.672;23.296;2023-04-16T10:43:39;6.97;;;3.00;;
35891;SDS011;21993;42.672;23.296;2023-04-16T10:46:20;6.37;;;2.93;;
35891;SDS011;21993;42.672;23.296;2023-04-16T10:48:53;4.63;;;3.33;;
35891;SDS011;21993;42.672;23.296;2023-04-16T10:51:33;3.27;;;2.80;;
35891;SDS011;21993;42.672;23.296;2023-04-16T10:54:17;5.13;;;3.07;;
35891;SDS011;21993;42.672;23.296;2023-04-16T10:56:45;6.83;;;3.37;;
35891;SDS011;21993;42.672;23.296;2023-04-16T10:59:11;5.00;;;3.50;;
35891;SDS011;21993;42.672;23.296;2023-04-16T11:01:42;8.43;;;4.17;;
35891;SDS011;21993;42.672;23.296;2023-04-16T11:09:55;6.87;;;3.07;;
35891;SDS011;21993;42.672;23.296;2023-04-16T11:15:03;6.17;;;3.20;;
35891;SDS011;21993;42.672;23.296;2023-04-16T11:20:14;3.40;;;2.60;;
35891;SDS011;21993;42.672;23.296;2023-04-16T11:22:40;6.30;;;3.20;;
35891;SDS011;21993;42.672;23.296;2023-04-16T11:25:06;7.30;;;3.80;;
35891;SDS011;21993;42.672;23.296;2023-04-16T11:27:32;4.37;;;2.87;;
35891;SDS011;21993;42.672;23.296;2023-04-16T11:30:02;5.23;;;3.17;;
35891;SDS011;21993;42.672;23.296;2023-04-16T11:32:34;4.43;;;2.90;;
35891;SDS011;21993;42.672;23.296;2023-04-16T11:35:01;5.60;;;2.87;;
35891;SDS011;21993;42.672;23.296;2023-04-16T11:37:32;7.30;;;3.40;;
35891;SDS011;21993;42.672;23.296;2023-04-16T11:40:01;5.10;;;2.90;;
35891;SDS011;21993;42.672;23.296;2023-04-16T11:42:34;5.57;;;3.07;;
35891;SDS011;21993;42.672;23.296;2023-04-16T11:45:01;6.07;;;3.37;;
35891;SDS011;21993;42.672;23.296;2023-04-16T11:47:28;8.63;;;3.40;;
35891;SDS011;21993;42.672;23.296;2023-04-16T11:49:55;5.23;;;2.60;;
35891;SDS011;21993;42.672;23.296;2023-04-16T11:52:25;5.53;;;2.97;;
35891;SDS011;21993;42.672;23.296;2023-04-16T11:54:55;4.93;;;3.13;;
35891;SDS011;21993;42.672;23.296;2023-04-16T11:57:28;4.87;;;2.73;;
35891;SDS011;21993;42.672;23.296;2023-04-16T11:59:54;4.73;;;2.70;;
35891;SDS011;21993;42.672;23.296;2023-04-16T12:02:37;5.63;;;3.00;;
35891;SDS011;21993;42.672;23.296;2023-04-16T12:05:24;5.70;;;3.00;;
35891;SDS011;21993;42.672;23.296;2023-04-16T12:07:58;2.97;;;2.73;;
35891;SDS011;21993;42.672;23.296;2023-04-16T12:10:25;3.77;;;2.80;;
35891;SDS011;21993;42.672;23.296;2023-04-16T12:12:51;3.57;;;3.23;;
35891;SDS011;21993;42.672;23.296;2023-04-16T12:15:16;6.57;;;2.73;;
35891;SDS011;21993;42.672;23.296;2023-04-16T12:17:42;5.27;;;2.93;;
35891;SDS011;21993;42.672;23.296;2023-04-16T12:20:08;6.57;;;2.60;;
35891;SDS011;21993;42.672;23.296;2023-04-16T12:22:36;5.47;;;2.90;;
35891;SDS011;21993;42.672;23.296;2023-04-16T12:25:11;4.30;;;2.77;;
35891;SDS011;21993;42.672;23.296;2023-04-16T12:27:42;5.17;;;2.73;;
35891;SDS011;21993;42.672;23.296;2023-04-16T12:30:19;4.97;;;2.70;;
35891;SDS011;21993;42.672;23.296;2023-04-16T12:32:47;4.63;;;3.00;;
35891;SDS011;21993;42.672;23.296;2023-04-16T12:35:28;5.10;;;3.30;;
35891;SDS011;21993;42.672;23.296;2023-04-16T12:37:55;4.87;;;2.97;;
35891;SDS011;21993;42.672;23.296;2023-04-16T12:40:21;6.77;;;3.00;;
35891;SDS011;21993;42.672;23.296;2023-04-16T12:42:46;6.73;;;2.93;;
35891;SDS011;21993;42.672;23.296;2023-04-16T12:45:12;5.00;;;2.70;;
35891;SDS011;21993;42.672;23.296;2023-04-16T12:47:37;6.07;;;2.80;;
35891;SDS011;21993;42.672;23.296;2023-04-16T12:50:03;3.27;;;2.50;;
35891;SDS011;21993;42.672;23.296;2023-04-16T12:52:28;5.10;;;2.93;;
35891;SDS011;21993;42.672;23.296;2023-04-16T12:54:54;6.07;;;3.37;;
35891;SDS011;21993;42.672;23.296;2023-04-16T12:57:19;4.30;;;2.90;;
35891;SDS011;21993;42.672;23.296;2023-04-16T12:59:45;4.73;;;2.53;;
35891;SDS011;21993;42.672;23.296;2023-04-16T13:02:11;4.37;;;3.13;;
35891;SDS011;21993;42.672;23.296;2023-04-16T13:04:36;6.40;;;2.70;;
35891;SDS011;21993;42.672;23.296;2023-04-16T13:07:02;8.57;;;3.03;;
35891;SDS011;21993;42.672;23.296;2023-04-16T13:09:27;8.03;;;2.87;;
35891;SDS011;21993;42.672;23.296;2023-04-16T13:11:53;4.27;;;2.60;;
35891;SDS011;21993;42.672;23.296;2023-04-16T13:14:19;3.20;;;2.40;;
35891;SDS011;21993;42.672;23.296;2023-04-16T13:16:44;4.57;;;2.50;;
35891;SDS011;21993;42.672;23.296;2023-04-16T13:19:10;4.00;;;3.27;;
35891;SDS011;21993;42.672;23.296;2023-04-16T13:21:35;3.97;;;2.50;;
35891;SDS011;21993;42.672;23.296;2023-04-16T13:24:01;3.17;;;2.30;;
35891;SDS011;21993;42.672;23.296;2023-04-16T13:26:26;4.33;;;2.53;;
35891;SDS011;21993;42.672;23.296;2023-04-16T13:28:51;2.30;;;2.03;;
35891;SDS011;21993;42.672;23.296;2023-04-16T13:31:17;4.33;;;2.30;;
35891;SDS011;21993;42.672;23.296;2023-04-16T13:33:44;7.53;;;2.37;;
35891;SDS011;21993;42.672;23.296;2023-04-16T13:36:10;10.77;;;2.30;;
35891;SDS011;21993;42.672;23.296;2023-04-16T13:38:36;4.47;;;2.53;;
35891;SDS011;21993;42.672;23.296;2023-04-16T13:41:02;3.23;;;2.17;;
35891;SDS011;21993;42.672;23.296;2023-04-16T13:43:28;3.10;;;2.30;;
35891;SDS011;21993;42.672;23.296;2023-04-16T13:45:54;3.03;;;1.60;;
35891;SDS011;21993;42.672;23.296;2023-04-16T13:48:19;4.60;;;2.17;;
35891;SDS011;21993;42.672;23.296;2023-04-16T13:50:45;3.10;;;2.13;;
35891;SDS011;21993;42.672;23.296;2023-04-16T13:53:10;3.87;;;2.17;;
35891;SDS011;21993;42.672;23.296;2023-04-16T13:55:36;3.43;;;2.27;;
35891;SDS011;21993;42.672;23.296;2023-04-16T13:58:01;3.03;;;2.20;;
35891;SDS011;21993;42.672;23.296;2023-04-16T14:00:27;6.53;;;3.30;;
35891;SDS011;21993;42.672;23.296;2023-04-16T14:02:52;5.07;;;3.10;;
35891;SDS011;21993;42.672;23.296;2023-04-16T14:05:17;6.93;;;2.90;;
35891;SDS011;21993;42.672;23.296;2023-04-16T14:07:43;4.30;;;2.80;;
35891;SDS011;21993;42.672;23.296;2023-04-16T14:10:09;4.50;;;2.53;;
35891;SDS011;21993;42.672;23.296;2023-04-16T14:12:35;3.20;;;2.63;;
35891;SDS011;21993;42.672;23.296;2023-04-16T14:15:02;4.83;;;3.03;;
35891;SDS011;21993;42.672;23.296;2023-04-16T14:17:28;3.90;;;2.83;;
35891;SDS011;21993;42.672;23.296;2023-04-16T14:19:54;5.17;;;2.60;;
35891;SDS011;21993;42.672;23.296;2023-04-16T14:22:19;3.63;;;2.70;;
35891;SDS011;21993;42.672;23.296;2023-04-16T14:24:44;6.67;;;3.00;;
35891;SDS011;21993;42.672;23.296;2023-04-16T14:27:10;3.33;;;2.80;;
35891;SDS011;21993;42.672;23.296;2023-04-16T14:29:36;7.13;;;2.47;;
35891;SDS011;21993;42.672;23.296;2023-04-16T14:32:01;3.33;;;2.87;;
35891;SDS011;21993;42.672;23.296;2023-04-16T14:34:27;6.07;;;2.80;;
35891;SDS011;21993;42.672;23.296;2023-04-16T14:36:52;3.93;;;2.70;;
35891;SDS011;21993;42.672;23.296;2023-04-16T14:39:18;3.60;;;2.83;;
35891;SDS011;21993;42.672;23.296;2023-04-16T14:41:44;4.77;;;2.57;;
35891;SDS011;21993;42.672;23.296;2023-04-16T14:44:10;6.17;;;2.53;;